Chicopee, MA

5:14 AM EST on December 21, 2014 (GMT -0500)
Near Szot Park | Change Station
CLOSE
Current Station
Personal Weather Station
Location: Chicopee, MA
Elevation: 167 ft
Nearby Weather Stations
Active Advisory: Special Statement Active Notice: Public Information Statement

Elev 167 ft 42.15 °N, 72.58 °W | Updated 2 seconds ago

Overcast
Overcast
31.5 °F
Feels Like 32 °F
N
0.0
Wind Variable Wind from NNE
Gusts 0.0 mph

Today
High -- | Low -- °F
--% Chance of Precip.
Yesterday
High -- | Low -- °F
Precip. -- in
7:15 AM 4:21 PM
Waning Crescent, 1% visible
Pressure 30.29 in
Visibility 9.0 miles
Clouds Few 500 ft
Scattered Clouds 1100 ft
Overcast 2000 ft
Windchill 32 °F
Dew Point 14 °F
Humidity 48%
Rainfall 0.00 in
Snow Depth Not available.
UV 0 out of 12
Pollen .10 out of 12
Air Quality Not available.
Flu Activity Not available.
METAR KCEF 210958Z AUTO 36004KT 9SM FEW005 SCT011 OVC020 M01/M02 A3026 RMK AO2 UPE0943 CIG 010 RWY05 SLP256 P0000 T10101018

More Conditions Fewer Conditions

Pressure 30.29 in
Visibility 9.0 miles
Clouds Few 500 ft
Scattered Clouds 1100 ft
Overcast 2000 ft
Windchill 32 °F
Dew Point 14 °F
Humidity 48%
Rainfall 0.00 in
Snow Depth Not available.
UV 0 out of 12
Pollen .10 out of 12
Air Quality Not available.
Flu Activity Not available.
METAR KCEF 210958Z AUTO 36004KT 9SM FEW005 SCT011 OVC020 M01/M02 A3026 RMK AO2 UPE0943 CIG 010 RWY05 SLP256 P0000 T10101018

More Conditions Fewer Conditions

10-Day Weather Forecast

Almanac

Astronomy

Dec. 21, 2014 Rise Set
Actual Time
Civil Twilight
Nautical Twilight
Astronomical Twilight
Moon
Length of Visible Light
Length of Day
Tomorrow will be .
, % of the Moon is Illuminated

Today's Extremes

State Highs State Lows

Community

WunderPhotos

Upload Photos

1,779,364 photos uploaded!

WunderBlogs® & News

Nearby

Air Quality

  Air Quality AQ Index Pollutant
Not available.

Snow Depth

Station Depth Elevation

Earthquake Activity

City Distance Mag. Time & Date
Minimum magnitude displayed is 2.5.

Coastal Water Temperatures

Place Temperature

Nearby Weather Stations